Time;durP1;ratioP1;P1;durP2;ratioP2;P2;SDS_P1;SDS_P2;PMS_P1;PMS_P2;Temp;Humidity;BMP_temperature;BMP_pressure;BME280_temperature;BME280_humidity;BME280_pressure;Samples;Min_cycle;Max_cycle;Signal;HPM_P1;HPM_P2
2022/08/22 00:01:15;;;;;;;6.60;5.60;;;;;;;15.47;100.00;97396.71;104920;1287;25068;-86
2022/08/22 00:03:53;;;;;;;5.90;5.00;;;;;;;15.46;100.00;97397.70;104984;1288;25359;-84
2022/08/22 00:06:44;;;;;;;6.10;5.20;;;;;;;15.48;100.00;97393.58;104998;1287;22676;-86
2022/08/22 00:09:28;;;;;;;6.60;4.80;;;;;;;15.51;100.00;97394.60;104950;1288;22719;-87
2022/08/22 00:11:56;;;;;;;;;;;;;;;15.50;100.00;97389.61;104927;1288;22529;-86
2022/08/22 00:14:36;;;;;;;6.10;5.50;;;;;;;15.53;100.00;97390.77;104938;1287;24301;-85
2022/08/22 00:17:22;;;;;;;7.00;5.80;;;;;;;15.59;100.00;97386.22;104954;1287;25644;-85
2022/08/22 00:20:15;;;;;;;8.90;6.40;;;;;;;15.61;100.00;97383.95;105428;1280;24283;-86
2022/08/22 00:23:14;;;;;;;9.10;6.60;;;;;;;15.57;100.00;97384.92;105834;1280;25290;-85
2022/08/22 00:26:01;;;;;;;7.70;6.50;;;;;;;15.56;100.00;97382.95;105930;1280;22661;-85
2022/08/22 00:28:41;;;;;;;8.20;6.80;;;;;;;15.57;100.00;97387.48;105900;1280;25320;-85
2022/08/22 00:31:34;;;;;;;8.00;6.80;;;;;;;15.60;100.00;97383.30;106093;1280;22580;-87
2022/08/22 00:34:07;;;;;;;10.50;7.80;;;;;;;15.62;100.00;97384.98;105745;1280;22785;-87
2022/08/22 00:36:50;;;;;;;8.30;6.30;;;;;;;15.61;100.00;97386.12;105625;1280;23559;-86
2022/08/22 00:39:30;;;;;;;9.70;7.10;;;;;;;15.63;100.00;97387.28;105694;1280;22976;-87
2022/08/22 00:42:13;;;;;;;7.60;6.80;;;;;;;15.62;100.00;97388.23;105655;1281;23946;-86
2022/08/22 00:45:16;;;;;;;9.20;7.30;;;;;;;15.61;100.00;97387.36;105809;1280;24249;-86
2022/08/22 00:47:50;;;;;;;9.90;6.90;;;;;;;15.61;100.00;97386.52;105773;1280;22697;-86
2022/08/22 00:51:00;;;;;;;10.50;8.30;;;;;;;15.63;100.00;97383.69;105821;1280;25381;-87
2022/08/22 00:53:34;;;;;;;15.00;7.80;;;;;;;15.66;100.00;97383.25;104834;1287;25320;-87
2022/08/22 00:56:21;;;;;;;9.30;8.50;;;;;;;15.68;100.00;97384.71;105030;1287;25323;-83
2022/08/22 00:58:59;;;;;;;8.20;7.40;;;;;;;15.76;100.00;97384.88;104893;1289;23946;-85
2022/08/22 01:01:52;;;;;;;7.70;7.00;;;;;;;15.96;100.00;97379.84;105035;1287;22557;-85
2022/08/22 01:05:08;;;;;;;8.70;7.90;;;;;;;16.01;100.00;97375.09;105011;1289;22674;-85
2022/08/22 01:07:57;;;;;;;8.50;7.30;;;;;;;16.03;100.00;97378.31;104825;1287;22675;-85
2022/08/22 01:10:37;;;;;;;10.30;7.80;;;;;;;16.07;100.00;97378.34;105004;1287;24331;-85
2022/08/22 01:13:41;;;;;;;7.40;6.70;;;;;;;16.15;100.00;97380.98;104982;1287;22606;-85
2022/08/22 01:16:29;;;;;;;9.90;7.10;;;;;;;16.22;100.00;97379.92;104981;1287;22560;-84
2022/08/22 01:19:48;;;;;;;8.80;6.60;;;;;;;16.19;100.00;97377.48;105012;1287;22785;-87
2022/08/22 01:22:37;;;;;;;9.10;7.30;;;;;;;16.20;100.00;97375.35;104565;1287;22615;-86
2022/08/22 01:25:43;;;;;;;9.40;7.90;;;;;;;16.23;100.00;97371.92;104923;1287;22556;-83
2022/08/22 01:28:30;;;;;;;10.20;7.50;;;;;;;16.18;100.00;97372.73;104941;1287;25364;-83
2022/08/22 01:31:22;;;;;;;9.20;7.10;;;;;;;16.09;100.00;97372.05;105435;1280;25238;-85
2022/08/22 01:34:41;;;;;;;7.10;6.40;;;;;;;16.04;100.00;97369.81;105822;1280;22565;-86
2022/08/22 01:37:40;;;;;;;8.40;7.10;;;;;;;16.09;100.00;97372.58;106127;1280;25333;-85
2022/08/22 01:40:25;;;;;;;11.60;8.30;;;;;;;16.11;100.00;97372.95;105718;1280;24416;-85
2022/08/22 01:42:58;;;;;;;12.30;7.10;;;;;;;16.17;100.00;97371.95;105670;1279;22707;-85
2022/08/22 01:45:41;;;;;;;9.50;7.40;;;;;;;16.12;100.00;97374.37;105584;1280;22679;-86
2022/08/22 01:48:19;;;;;;;10.40;6.90;;;;;;;16.08;100.00;97371.06;105678;1280;22703;-86
2022/08/22 01:50:53;;;;;;;18.30;7.20;;;;;;;16.03;100.00;97373.13;105756;1280;24357;-86
2022/08/22 01:53:38;;;;;;;20.70;7.20;;;;;;;15.96;100.00;97374.09;105787;1279;25474;-85
2022/08/22 01:56:14;;;;;;;11.80;7.10;;;;;;;15.93;100.00;97369.80;105807;1280;22657;-86
2022/08/22 01:59:04;;;;;;;9.60;7.30;;;;;;;15.88;100.00;97365.04;105429;1281;24276;-87
2022/08/22 02:02:00;;;;;;;16.30;6.60;;;;;;;15.89;100.00;97364.43;105859;1280;22754;-87
2022/08/22 02:04:39;;;;;;;17.20;8.40;;;;;;;15.87;100.00;97368.80;105626;1280;22551;-88
2022/08/22 02:07:46;;;;;;;14.10;7.50;;;;;;;15.84;100.00;97370.29;105661;1280;22598;-88
2022/08/22 02:10:40;;;;;;;10.20;6.90;;;;;;;15.84;100.00;97373.45;105542;1280;22535;-87
2022/08/22 02:13:11;;;;;;;11.40;6.80;;;;;;;15.83;100.00;97374.14;105605;1280;22897;-87
2022/08/22 02:15:39;;;;;;;20.60;6.90;;;;;;;15.83;100.00;97372.88;105644;1280;25393;-87
2022/08/22 02:18:19;;;;;;;14.90;8.00;;;;;;;15.80;100.00;97371.48;105613;1280;22670;-84
2022/08/22 02:20:47;;;;;;;9.30;7.30;;;;;;;15.84;100.00;97370.73;105462;1280;22778;-88
2022/08/22 02:23:44;;;;;;;12.40;6.40;;;;;;;15.89;100.00;97369.02;105610;1280;25348;-88
2022/08/22 02:27:08;;;;;;;13.00;6.80;;;;;;;15.85;100.00;97368.77;105510;1280;22622;-86
2022/08/22 02:29:45;;;;;;;12.80;7.10;;;;;;;15.81;100.00;97363.67;105034;1287;24133;-86
2022/08/22 02:32:29;;;;;;;11.20;6.80;;;;;;;15.81;100.00;97364.66;105020;1289;22520;-88
2022/08/22 02:35:00;;;;;;;28.70;8.20;;;;;;;15.79;100.00;97363.92;105066;1289;25365;-87
2022/08/22 02:37:53;;;;;;;14.70;6.70;;;;;;;15.81;100.00;97367.70;105008;1287;23192;-88
2022/08/22 02:40:36;;;;;;;11.90;9.00;;;;;;;15.90;100.00;97369.73;105027;1287;25304;-88
2022/08/22 02:43:33;;;;;;;11.00;8.30;;;;;;;16.11;100.00;97371.01;105707;1289;24349;-88
2022/08/22 02:46:13;;;;;;;12.30;7.20;;;;;;;16.18;100.00;97364.96;104835;1289;25393;-88
2022/08/22 02:48:51;;;;;;;23.30;9.00;;;;;;;16.19;100.00;97363.68;105005;1287;22570;-86
2022/08/22 02:51:43;;;;;;;19.60;9.90;;;;;;;16.12;100.00;97355.11;104997;1287;24120;-87
2022/08/22 02:54:37;;;;;;;16.10;8.90;;;;;;;16.09;100.00;97352.70;105038;1287;25326;-87
2022/08/22 02:57:13;;;;;;;18.00;9.90;;;;;;;16.11;100.00;97355.33;104778;1287;22897;-86
2022/08/22 03:00:05;;;;;;;20.60;9.40;;;;;;;16.11;100.00;97358.05;105049;1288;25382;-86
2022/08/22 03:03:20;;;;;;;16.20;9.00;;;;;;;16.16;100.00;97353.89;105047;1287;24663;-87
2022/08/22 03:05:50;;;;;;;;;;;;;;;16.19;100.00;97353.59;105924;1280;22690;-87
2022/08/22 03:08:23;;;;;;;14.00;10.20;;;;;;;16.30;100.00;97354.88;105691;1280;22557;-86
2022/08/22 03:11:15;;;;;;;18.70;12.00;;;;;;;16.47;100.00;97351.67;105616;1280;24041;-87
2022/08/22 03:13:46;;;;;;;12.30;10.70;;;;;;;16.49;100.00;97350.70;105643;1280;22608;-87
2022/08/22 03:16:36;;;;;;;12.30;9.90;;;;;;;16.53;100.00;97348.63;105622;1280;25412;-88
2022/08/22 03:19:13;;;;;;;15.30;12.30;;;;;;;16.57;100.00;97348.10;105640;1280;24425;-88
2022/08/22 03:21:58;;;;;;;20.70;12.80;;;;;;;16.58;100.00;97347.49;105646;1280;22554;-87
2022/08/22 03:24:37;;;;;;;13.70;12.00;;;;;;;16.59;100.00;97349.23;105691;1280;24242;-86
2022/08/22 03:27:17;;;;;;;13.20;10.60;;;;;;;16.61;100.00;97350.52;105865;1280;24300;-86
2022/08/22 03:30:11;;;;;;;15.20;12.20;;;;;;;16.66;100.00;97355.07;105813;1280;22625;-86
2022/08/22 03:32:53;;;;;;;18.50;11.60;;;;;;;16.61;100.00;97354.80;105778;1280;24072;-85
2022/08/22 03:35:25;;;;;;;16.90;11.10;;;;;;;16.60;100.00;97361.69;105663;1280;25346;-87
2022/08/22 03:38:07;;;;;;;14.30;11.20;;;;;;;16.61;100.00;97362.83;106474;1279;25936;-87
2022/08/22 03:41:00;;;;;;;13.10;11.70;;;;;;;16.66;100.00;97362.23;108475;1280;22495;-85
2022/08/22 03:43:28;;;;;;;14.90;12.20;;;;;;;16.75;100.00;97367.52;106623;1280;24305;-87
2022/08/22 03:46:29;;;;;;;15.70;13.40;;;;;;;16.85;100.00;97367.45;105620;1280;22538;-83
2022/08/22 03:49:18;;;;;;;15.60;12.90;;;;;;;16.83;100.00;97368.27;105708;1280;25441;-86
2022/08/22 03:52:03;;;;;;;18.80;13.50;;;;;;;16.84;100.00;97368.05;106114;1280;22545;-87
2022/08/22 03:54:49;;;;;;;17.00;14.20;;;;;;;16.84;100.00;97367.17;105614;1280;24213;-85
2022/08/22 03:57:35;;;;;;;18.30;14.10;;;;;;;16.90;100.00;97366.55;105594;1280;22712;-84
2022/08/22 04:00:10;;;;;;;19.50;13.90;;;;;;;16.90;100.00;97366.11;105604;1280;22550;-86
2022/08/22 04:03:03;;;;;;;16.30;12.70;;;;;;;16.92;100.00;97358.52;105452;1280;25368;-85
2022/08/22 04:06:02;;;;;;;16.30;13.30;;;;;;;16.91;100.00;97357.86;105664;1280;22560;-86
2022/08/22 04:08:51;;;;;;;13.00;11.50;;;;;;;16.90;100.00;97360.27;105614;1280;25419;-87
2022/08/22 04:12:01;;;;;;;11.60;10.30;;;;;;;17.06;100.00;97360.08;105556;1281;22656;-88
2022/08/22 04:15:09;;;;;;;15.50;11.80;;;;;;;17.29;100.00;97362.23;105593;1281;22627;-86
2022/08/22 04:17:37;;;;;;;14.40;12.20;;;;;;;17.43;100.00;97366.83;104718;1287;26746;-87
2022/08/22 04:20:39;;;;;;;16.40;12.80;;;;;;;17.54;100.00;97371.16;104658;1287;24120;-91
2022/08/22 04:23:23;;;;;;;13.50;12.20;;;;;;;17.53;100.00;97369.77;104741;1287;25521;-87
2022/08/22 04:26:25;;;;;;;13.70;12.30;;;;;;;17.53;100.00;97370.29;104848;1287;22524;-88
2022/08/22 04:29:01;;;;;;;13.90;12.50;;;;;;;17.52;100.00;97373.23;104826;1287;24533;-88
2022/08/22 04:31:35;;;;;;;14.00;12.30;;;;;;;17.48;100.00;97381.32;104701;1287;24173;-87
2022/08/22 04:34:41;;;;;;;14.30;12.80;;;;;;;17.45;100.00;97381.16;104703;1286;22563;-87
2022/08/22 04:37:22;;;;;;;15.40;11.60;;;;;;;17.44;100.00;97387.46;104870;1287;24157;-87
2022/08/22 04:39:55;;;;;;;16.90;15.00;;;;;;;17.45;100.00;97393.92;104793;1287;22585;-88
2022/08/22 04:42:39;;;;;;;17.60;13.70;;;;;;;17.45;100.00;97400.80;104636;1287;22583;-87
2022/08/22 04:45:15;;;;;;;15.60;12.70;;;;;;;17.53;100.00;97401.89;104779;1287;25518;-88
2022/08/22 04:47:58;;;;;;;17.00;12.20;;;;;;;17.62;100.00;97400.70;104800;1287;22548;-88
2022/08/22 04:50:39;;;;;;;16.00;11.60;;;;;;;17.68;100.00;97404.70;104716;1287;22546;-88
2022/08/22 04:53:24;;;;;;;15.40;12.60;;;;;;;17.79;100.00;97405.80;104908;1287;22722;-89
2022/08/22 04:56:06;;;;;;;18.80;13.10;;;;;;;17.85;100.00;97411.33;105947;1281;23995;-86
2022/08/22 04:58:54;;;;;;;18.20;14.00;;;;;;;17.80;100.00;97410.65;106451;1280;22532;-88
2022/08/22 05:01:43;;;;;;;15.40;13.00;;;;;;;17.74;100.00;97419.16;105771;1283;22651;-89
2022/08/22 05:04:22;;;;;;;16.20;14.30;;;;;;;17.70;100.00;97421.95;105587;1280;24373;-88
2022/08/22 05:07:01;;;;;;;16.50;14.30;;;;;;;17.69;100.00;97424.89;105749;1280;25311;-88
2022/08/22 05:09:36;;;;;;;19.90;15.00;;;;;;;17.62;100.00;97425.38;105812;1280;22663;-89
2022/08/22 05:12:10;;;;;;;18.40;13.30;;;;;;;17.54;100.00;97429.70;105840;1281;25368;-89
2022/08/22 05:15:01;;;;;;;20.30;14.90;;;;;;;17.48;100.00;97429.89;105796;1283;22778;-88
2022/08/22 05:17:31;;;;;;;14.60;12.70;;;;;;;17.44;100.00;97433.53;105814;1281;22632;-88
2022/08/22 05:20:06;;;;;;;15.00;13.50;;;;;;;17.37;100.00;97430.18;105806;1281;23936;-88
2022/08/22 05:22:42;;;;;;;16.20;13.70;;;;;;;17.31;100.00;97430.80;105849;1281;23241;-89
2022/08/22 05:25:16;;;;;;;14.50;12.80;;;;;;;17.24;100.00;97430.18;105802;1283;25410;-87
2022/08/22 05:27:49;;;;;;;14.30;12.50;;;;;;;17.23;100.00;97436.23;105827;1281;24306;-87
2022/08/22 05:30:27;;;;;;;14.90;12.10;;;;;;;17.21;100.00;97435.89;105787;1282;25403;-89
2022/08/22 05:32:58;;;;;;;14.20;12.80;;;;;;;17.20;100.00;97436.55;105760;1281;24000;-87
2022/08/22 05:35:59;;;;;;;18.90;14.50;;;;;;;17.19;100.00;97434.73;105717;1280;24295;-86
2022/08/22 05:38:31;;;;;;;16.00;14.10;;;;;;;17.16;100.00;97433.13;105596;1281;22606;-87
2022/08/22 05:41:16;;;;;;;15.50;13.20;;;;;;;17.19;100.00;97436.91;105886;1281;22558;-87
2022/08/22 05:43:47;;;;;;;15.70;13.30;;;;;;;17.20;100.00;97437.64;105784;1281;25414;-89
2022/08/22 05:46:22;;;;;;;21.20;13.60;;;;;;;17.21;100.00;97442.35;105820;1281;24312;-86
2022/08/22 05:49:01;;;;;;;15.80;13.70;;;;;;;17.23;100.00;97442.77;105890;1280;25519;-86
2022/08/22 05:51:33;;;;;;;21.90;13.50;;;;;;;17.25;100.00;97450.44;105856;1281;22569;-86
2022/08/22 05:54:11;;;;;;;15.80;12.50;;;;;;;17.26;100.00;97447.50;105791;1281;22629;-85
2022/08/22 05:57:17;;;;;;;14.90;11.70;;;;;;;17.29;100.00;97452.55;105783;1281;22664;-85
2022/08/22 05:59:51;;;;;;;14.50;13.00;;;;;;;17.35;100.00;97451.84;105645;1280;25363;-86
2022/08/22 06:02:30;;;;;;;14.80;12.80;;;;;;;17.35;100.00;97451.61;105936;1281;25296;-91
2022/08/22 06:05:01;;;;;;;15.30;12.50;;;;;;;17.39;100.00;97449.04;106421;1281;22741;-90
2022/08/22 06:07:34;;;;;;;16.70;12.60;;;;;;;17.45;100.00;97453.08;105794;1281;22556;-88
2022/08/22 06:10:21;;;;;;;15.40;13.40;;;;;;;17.52;100.00;97453.48;105728;1280;25403;-87
2022/08/22 06:13:00;;;;;;;15.40;14.00;;;;;;;17.57;100.00;97451.48;105734;1280;25311;-89
2022/08/22 06:15:41;;;;;;;16.50;14.90;;;;;;;17.64;100.00;97451.95;105507;1281;22671;-88
2022/08/22 06:18:13;;;;;;;16.00;14.40;;;;;;;17.71;100.00;97450.71;105768;1280;23951;-88
2022/08/22 06:20:46;;;;;;;17.00;15.20;;;;;;;17.77;100.00;97448.58;105740;1281;22547;-88
2022/08/22 06:23:21;;;;;;;16.60;14.50;;;;;;;17.84;100.00;97451.95;105742;1281;24086;-89
2022/08/22 06:25:51;;;;;;;16.20;14.50;;;;;;;17.92;100.00;97456.86;105777;1281;22574;-89
2022/08/22 06:28:24;;;;;;;18.70;14.00;;;;;;;17.98;100.00;97452.92;105654;1281;25360;-85
2022/08/22 06:30:55;;;;;;;18.30;16.10;;;;;;;18.02;100.00;97454.09;105715;1281;22532;-85
2022/08/22 06:33:30;;;;;;;16.90;14.90;;;;;;;18.05;100.00;97453.92;105882;1281;24750;-90
2022/08/22 06:39:29;;;;;;;17.60;15.90;;;;;;;18.11;100.00;97459.36;105653;1279;25426;-89
2022/08/22 06:42:09;;;;;;;17.70;16.00;;;;;;;18.13;100.00;97465.16;106177;1281;25232;-90
2022/08/22 06:44:53;;;;;;;14.80;13.30;;;;;;;18.16;100.00;97468.17;106141;1281;22668;-91
2022/08/22 06:47:47;;;;;;;16.40;14.80;;;;;;;18.16;100.00;97468.65;106030;1281;24224;-91
2022/08/22 06:50:28;;;;;;;17.90;16.30;;;;;;;18.17;100.00;97466.77;105992;1281;24383;-91
2022/08/22 06:53:26;;;;;;;16.40;14.70;;;;;;;18.25;100.00;97460.55;106487;1280;22553;-87
2022/08/22 06:55:58;;;;;;;16.40;14.80;;;;;;;18.45;100.00;97465.30;106196;1280;24214;-90
2022/08/22 06:58:31;;;;;;;16.50;14.90;;;;;;;18.62;100.00;97467.98;106056;1280;25365;-89
2022/08/22 07:01:17;;;;;;;20.60;18.60;;;;;;;18.85;100.00;97465.52;106113;1280;23059;-92
2022/08/22 07:03:49;;;;;;;16.80;15.30;;;;;;;18.85;100.00;97467.77;107140;1280;22530;-85
2022/08/22 07:09:30;;;;;;;23.80;19.60;;;;;;;18.82;100.00;97462.27;107256;1282;25334;-92
2022/08/22 07:14:49;;;;;;;16.80;15.30;;;;;;;18.72;100.00;97465.66;107259;1282;22486;-91
2022/08/22 07:17:22;;;;;;;18.80;16.40;;;;;;;18.83;100.00;97471.02;106406;1282;22715;-91
2022/08/22 07:19:56;;;;;;;17.40;15.90;;;;;;;19.04;100.00;97472.08;105834;1284;24440;-90
2022/08/22 07:22:32;;;;;;;19.50;17.50;;;;;;;19.17;100.00;97470.58;105905;1282;22541;-91
2022/08/22 07:25:08;;;;;;;21.50;19.60;;;;;;;19.21;100.00;97473.61;105609;1283;25316;-90
2022/08/22 07:28:12;;;;;;;20.40;18.20;;;;;;;19.15;100.00;97470.23;105616;1282;22566;-87
2022/08/22 07:31:23;;;;;;;18.40;16.60;;;;;;;19.10;100.00;97466.09;104964;1287;23339;-89
2022/08/22 07:33:59;;;;;;;24.60;19.80;;;;;;;19.13;100.00;97466.86;105217;1288;23347;-89
2022/08/22 07:36:58;;;;;;;22.20;20.20;;;;;;;19.12;100.00;97465.42;106309;1270;22758;-89
2022/08/22 07:39:34;;;;;;;20.60;18.10;;;;;;;19.03;100.00;97464.42;105890;1281;23103;-88
2022/08/22 07:42:17;;;;;;;23.60;21.40;;;;;;;18.99;100.00;97465.37;105970;1281;23543;-90
2022/08/22 07:45:10;;;;;;;21.00;19.00;;;;;;;18.98;100.00;97468.39;105933;1280;24252;-88
2022/08/22 07:48:23;;;;;;;24.40;22.30;;;;;;;18.99;100.00;97472.63;105900;1280;25464;-88
2022/08/22 07:51:01;;;;;;;25.70;23.10;;;;;;;18.98;100.00;97473.53;105173;1287;23955;-89
2022/08/22 07:53:41;;;;;;;23.00;20.80;;;;;;;19.03;100.00;97473.23;105069;1287;22631;-88
2022/08/22 07:56:28;;;;;;;25.70;23.50;;;;;;;19.08;100.00;97477.45;105798;1287;25063;-91
2022/08/22 07:59:13;;;;;;;23.00;20.80;;;;;;;19.09;100.00;97476.77;105924;1287;22864;-90
2022/08/22 08:01:52;;;;;;;19.70;17.90;;;;;;;19.12;100.00;97480.62;106129;1287;22625;-91
2022/08/22 08:04:35;;;;;;;21.70;19.70;;;;;;;19.35;100.00;97479.69;106300;1287;23109;-93
2022/08/22 08:07:13;;;;;;;26.00;23.60;;;;;;;19.59;100.00;97476.67;106036;1287;25252;-94
2022/08/22 08:12:46;;;;;;;27.80;25.20;;;;;;;19.46;100.00;97475.48;106711;1281;25216;-90
2022/08/22 08:15:33;;;;;;;24.70;22.40;;;;;;;19.40;100.00;97473.28;106992;1282;23154;-93
2022/08/22 08:18:11;;;;;;;26.50;24.10;;;;;;;19.34;100.00;97470.07;106321;1282;25303;-92
2022/08/22 08:20:39;;;;;;;26.90;24.40;;;;;;;19.36;100.00;97467.60;106027;1282;24283;-91
2022/08/22 08:23:11;;;;;;;25.70;23.30;;;;;;;19.40;100.00;97462.19;105934;1282;23000;-92
2022/08/22 08:26:12;;;;;;;24.00;21.90;;;;;;;19.51;100.00;97459.24;105810;1282;22699;-90
2022/08/22 08:28:48;;;;;;;26.20;23.60;;;;;;;19.67;100.00;97454.41;105690;1284;22544;-92
2022/08/22 08:31:25;;;;;;;27.20;24.70;;;;;;;19.71;100.00;97446.52;106248;1282;22571;-89
2022/08/22 08:34:06;;;;;;;24.80;22.50;;;;;;;19.72;100.00;97444.17;105849;1282;23585;-91
2022/08/22 08:36:47;;;;;;;24.90;22.20;;;;;;;19.81;100.00;97445.78;105726;1282;26562;-86
2022/08/22 08:39:23;;;;;;;26.10;23.80;;;;;;;19.93;100.00;97452.65;105715;1282;22571;-88
2022/08/22 08:42:22;;;;;;;26.10;23.80;;;;;;;19.96;100.00;97461.54;105709;1282;25433;-88
2022/08/22 08:45:05;;;;;;;25.80;23.40;;;;;;;19.85;100.00;97466.94;105698;1282;22543;-88
2022/08/22 08:47:51;;;;;;;27.50;25.00;;;;;;;19.83;100.00;97474.02;105723;1282;23467;-88
2022/08/22 08:50:42;;;;;;;24.50;22.20;;;;;;;19.88;100.00;97478.05;105491;1284;24285;-86
2022/08/22 08:53:25;;;;;;;23.30;21.30;;;;;;;19.99;100.00;97478.51;105754;1282;22696;-85
2022/08/22 08:56:02;;;;;;;23.50;21.50;;;;;;;20.20;100.00;97474.34;105738;1282;24258;-88
2022/08/22 08:58:39;;;;;;;20.00;17.80;;;;;;;20.39;100.00;97477.38;105736;1282;23959;-87
2022/08/22 09:01:26;;;;;;;20.80;19.00;;;;;;;20.54;100.00;97476.61;105903;1282;25521;-84
2022/08/22 09:04:14;;;;;;;22.80;20.90;;;;;;;20.70;100.00;97477.27;105768;1282;22544;-84
2022/08/22 09:06:57;;;;;;;24.70;22.40;;;;;;;20.78;100.00;97477.66;105696;1282;26515;-86
2022/08/22 09:09:50;;;;;;;21.70;19.60;;;;;;;20.85;100.00;97476.87;105867;1282;24409;-90
2022/08/22 09:12:59;;;;;;;20.40;18.70;;;;;;;20.90;100.00;97481.46;105711;1282;22553;-87
2022/08/22 09:15:47;;;;;;;22.10;20.30;;;;;;;21.00;100.00;97478.64;105724;1282;22586;-86
2022/08/22 09:19:09;;;;;;;22.50;20.40;;;;;;;21.02;100.00;97474.20;105887;1282;25328;-86
2022/08/22 09:22:40;;;;;;;19.00;17.00;;;;;;;20.99;100.00;97481.92;105618;1282;25449;-85
2022/08/22 09:25:23;;;;;;;19.40;17.40;;;;;;;21.22;100.00;97484.70;104883;1290;22879;-85
2022/08/22 09:28:01;;;;;;;20.90;19.10;;;;;;;21.46;100.00;97486.41;104929;1290;24476;-86
2022/08/22 09:30:49;;;;;;;21.50;19.60;;;;;;;21.54;100.00;97489.20;105044;1291;22597;-88
2022/08/22 09:33:32;;;;;;;20.70;17.80;;;;;;;21.63;100.00;97498.98;104929;1290;26577;-88
2022/08/22 09:36:06;;;;;;;22.60;20.40;;;;;;;21.67;100.00;97492.89;104974;1290;22689;-85
2022/08/22 09:39:29;;;;;;;19.90;17.90;;;;;;;21.69;100.00;97489.07;105085;1290;25010;-86
2022/08/22 09:42:16;;;;;;;19.90;17.70;;;;;;;21.72;100.00;97494.74;104522;1294;22676;-86
2022/08/22 09:44:53;;;;;;;20.80;18.40;;;;;;;21.77;100.00;97497.75;104492;1293;25595;-89
2022/08/22 09:47:29;;;;;;;22.00;19.90;;;;;;;21.84;100.00;97497.15;104446;1294;22732;-88
2022/08/22 09:50:23;;;;;;;24.80;19.60;;;;;;;21.87;100.00;97498.11;104547;1294;25367;-84
2022/08/22 09:53:11;;;;;;;19.40;17.40;;;;;;;21.76;100.00;97493.73;103391;1292;1643352;-86
2022/08/22 09:56:02;;;;;;;21.80;19.80;;;;;;;21.81;100.00;97494.00;104476;1294;23958;-88
2022/08/22 09:59:10;;;;;;;22.30;20.00;;;;;;;21.70;100.00;97492.92;104817;1288;22635;-87
2022/08/22 10:01:41;;;;;;;24.40;20.50;;;;;;;21.64;100.00;97500.01;105003;1288;23942;-87
2022/08/22 10:04:34;;;;;;;22.00;19.90;;;;;;;21.62;100.00;97502.34;105013;1287;23005;-85
2022/08/22 10:07:24;;;;;;;23.70;21.40;;;;;;;21.53;100.00;97511.14;105144;1287;22818;-86
2022/08/22 10:10:23;;;;;;;28.70;23.20;;;;;;;21.43;100.00;97510.27;105186;1287;23955;-86
2022/08/22 10:13:13;;;;;;;24.30;21.30;;;;;;;21.34;100.00;97511.67;105325;1283;24253;-87
2022/08/22 10:15:43;;;;;;;23.30;20.90;;;;;;;21.33;100.00;97510.70;105667;1282;25401;-85
2022/08/22 10:18:37;;;;;;;24.20;21.60;;;;;;;21.37;100.00;97510.60;105640;1282;22587;-89
2022/08/22 10:21:31;;;;;;;23.80;20.70;;;;;;;21.34;100.00;97512.67;105716;1282;22571;-87
2022/08/22 10:24:32;;;;;;;26.50;22.60;;;;;;;21.30;100.00;97509.52;105875;1282;22549;-84
2022/08/22 10:27:16;;;;;;;26.40;23.50;;;;;;;21.19;100.00;97513.23;105783;1282;24293;-89
2022/08/22 10:29:52;;;;;;;31.60;25.00;;;;;;;20.97;100.00;97517.59;106123;1282;22565;-87
2022/08/22 10:32:45;;;;;;;29.00;25.90;;;;;;;20.67;100.00;97514.55;105818;1282;24331;-87
2022/08/22 10:35:29;;;;;;;26.50;23.70;;;;;;;20.36;100.00;97520.25;105676;1282;24216;-88
2022/08/22 10:38:13;;;;;;;27.10;23.50;;;;;;;20.17;100.00;97519.86;105508;1284;23101;-86
2022/08/22 10:40:54;;;;;;;25.60;23.10;;;;;;;20.06;100.00;97523.47;105643;1284;25512;-86
2022/08/22 10:43:32;;;;;;;26.70;23.40;;;;;;;20.03;100.00;97521.39;105557;1284;22747;-87
2022/08/22 10:46:09;;;;;;;24.30;22.00;;;;;;;20.00;100.00;97519.95;105746;1284;24767;-86
2022/08/22 10:48:45;;;;;;;27.40;23.70;;;;;;;19.98;100.00;97518.44;105699;1284;23853;-84
2022/08/22 10:51:19;;;;;;;24.70;22.50;;;;;;;20.00;100.00;97518.15;105614;1284;22548;-88
2022/08/22 10:54:06;;;;;;;;;;;;;;;19.94;100.00;97512.29;105737;1284;25353;-86
2022/08/22 10:56:45;;;;;;;23.70;21.40;;;;;;;19.93;100.00;97506.41;105773;1284;25242;-87
2022/08/22 10:59:28;;;;;;;22.40;20.00;;;;;;;19.91;100.00;97507.55;105790;1284;22595;-88
2022/08/22 11:02:18;;;;;;;25.20;22.80;;;;;;;19.90;100.00;97508.73;106514;1284;24349;-88
2022/08/22 11:05:14;;;;;;;24.50;22.00;;;;;;;19.84;100.00;97511.60;106743;1283;22610;-86
2022/08/22 11:08:14;;;;;;;30.30;27.30;;;;;;;19.86;100.00;97512.33;106874;1284;24040;-86
2022/08/22 11:10:50;;;;;;;22.50;20.40;;;;;;;19.84;100.00;97511.43;106761;1284;22566;-86
2022/08/22 11:13:52;;;;;;;33.50;30.30;;;;;;;19.85;100.00;97508.57;106365;1284;22676;-87
2022/08/22 11:16:27;;;;;;;51.30;39.30;;;;;;;19.92;100.00;97513.75;106173;1284;22782;-87
2022/08/22 11:19:13;;;;;;;;;;;;;;;19.93;100.00;97508.21;106420;1284;25359;-88
2022/08/22 11:22:07;;;;;;;69.70;45.10;;;;;;;19.89;100.00;97508.08;106380;1284;23403;-85
2022/08/22 11:25:12;;;;;;;23.80;20.80;;;;;;;19.90;100.00;97510.42;105897;1284;25430;-85
2022/08/22 11:28:22;;;;;;;21.10;18.90;;;;;;;19.91;100.00;97509.19;106463;1284;25335;-86
2022/08/22 11:31:24;;;;;;;17.80;15.90;;;;;;;20.08;100.00;97501.54;106784;1284;24883;-86
2022/08/22 11:33:57;;;;;;;18.70;16.80;;;;;;;20.15;100.00;97502.64;107319;1284;22571;-84
2022/08/22 11:36:39;;;;;;;19.80;17.70;;;;;;;20.21;100.00;97500.22;106578;1284;22564;-86
2022/08/22 11:39:36;;;;;;;22.40;20.30;;;;;;;20.23;100.00;97503.75;106307;1284;22620;-85
2022/08/22 11:42:25;;;;;;;23.10;19.00;;;;;;;20.22;100.00;97505.23;107151;1284;22594;-87
2022/08/22 11:45:00;;;;;;;20.10;18.10;;;;;;;20.38;100.00;97506.52;106572;1284;23260;-85
2022/08/22 11:47:46;;;;;;;20.90;18.80;;;;;;;20.67;100.00;97504.99;105695;1284;22621;-84
2022/08/22 11:50:33;;;;;;;19.90;18.10;;;;;;;20.99;100.00;97499.14;106012;1284;25419;-88
2022/08/22 11:53:23;;;;;;;17.60;15.90;;;;;;;21.34;100.00;97493.89;106110;1284;22637;-88
2022/08/22 11:56:17;;;;;;;16.70;15.20;;;;;;;21.56;99.96;97494.14;105388;1284;24109;-87
2022/08/22 11:59:41;;;;;;;17.10;15.50;;;;;;;21.74;100.00;97499.13;105552;1284;22651;-87
2022/08/22 12:02:48;;;;;;;18.30;16.70;;;;;;;22.11;99.89;97494.48;105502;1284;25699;-87
2022/08/22 12:05:21;;;;;;;19.30;17.70;;;;;;;22.17;99.97;97491.40;105544;1284;23981;-88
2022/08/22 12:08:12;;;;;;;20.60;18.80;;;;;;;22.14;98.92;97490.82;105186;1284;24227;-87
2022/08/22 12:11:18;;;;;;;30.00;27.20;;;;;;;22.00;98.77;97487.05;105483;1284;25540;-89
2022/08/22 12:14:03;;;;;;;26.10;22.50;;;;;;;21.87;98.31;97487.14;105361;1283;22591;-90
2022/08/22 12:16:46;;;;;;;20.60;18.70;;;;;;;21.81;98.09;97485.38;105474;1283;22593;-89
2022/08/22 12:19:30;;;;;;;27.70;24.90;;;;;;;21.78;98.46;97486.70;105350;1283;22584;-89
2022/08/22 12:22:39;;;;;;;26.60;24.50;;;;;;;21.77;98.53;97483.17;105389;1284;24121;-90
2022/08/22 12:25:38;;;;;;;27.20;24.80;;;;;;;21.86;99.02;97479.38;105394;1284;25627;-89
2022/08/22 12:28:17;;;;;;;27.10;24.80;;;;;;;21.97;99.04;97475.29;105397;1283;23101;-89
2022/08/22 12:30:56;;;;;;;25.60;23.00;;;;;;;22.10;98.48;97471.74;105329;1282;24289;-88
2022/08/22 12:33:52;;;;;;;30.00;27.40;;;;;;;22.17;97.55;97467.40;105192;1284;25324;-92
2022/08/22 12:36:49;;;;;;;25.60;21.60;;;;;;;22.28;96.25;97466.83;105523;1283;22486;-89
2022/08/22 12:39:44;;;;;;;23.10;20.50;;;;;;;22.39;96.75;97464.29;105869;1283;22550;-93
2022/08/22 12:42:21;;;;;;;22.20;20.20;;;;;;;22.55;98.06;97463.23;105829;1283;25486;-89